Pagrindinis puslapis
METAR-TAF:

METAR-TAF

Oro uostai :

Cape Romanzof, Aliaska, Jungtinės Amerikos Valstijos

platuma: 61-47N, ilguma: 166-02W, Aukštis: 139 m

Dabartinis oras

Ataskaita buvo paskelbta 22 minutes, ne 04:14 UTC
Vėjas 3 kt iš Šiaurės/Šiaurės Rytų
Temperatūra 6°C
Drėgmė 65%
Slėgis 1002 hPa
Matomumas: 16.1 km
Išsisklaidę debesys ne aukštis 2800 ft

METAR: PACZ 210414Z AUTO 02003KT 10SM SCT028 06/00 A2958 RMK AO2 SLP020

Laikas: 20:36 (04:36 UTC)


TAF: trūkstamas

Orai ataskaitas ir orų prognozės (METAR, TAF).

turimą stotys yra geltonos ir raudonos taškus žemėlapyje.

Perkelti pele per norėdami pamatyti stoties vardą.

Tada spustelėkite, norėdami matyti oro stebėjimo ir prognozės.

Norėdami pakeisti žemėlapį: spustelėkite ant žalios mygtukų su juodo kryžiaus žemyn,; žalią mygtuką su brūkšneliu, jei norite nutolinti; arba žalių rodyklių gretimoms žemėlapius.


METAR-TAF: